createdAt,value
2024-01-24T00:00:09.751Z,8.97
2024-01-24T00:02:42.563Z,7.03
2024-01-24T00:05:11.331Z,9.70
2024-01-24T00:07:40.149Z,9.13
2024-01-24T00:10:10.637Z,5.90
2024-01-24T00:12:39.495Z,5.37
2024-01-24T00:15:09.022Z,8.13
2024-01-24T00:17:37.668Z,6.07
2024-01-24T00:20:10.311Z,6.40
2024-01-24T00:22:39.063Z,8.13
2024-01-24T00:25:08.213Z,5.33
2024-01-24T00:27:37.014Z,3.23
2024-01-24T00:30:07.322Z,3.13
2024-01-24T00:32:35.926Z,3.90
2024-01-24T00:35:05.081Z,2.90
2024-01-24T00:37:35.146Z,1.53
2024-01-24T00:40:04.379Z,5.57
2024-01-24T00:42:33.055Z,2.60
2024-01-24T00:45:00.864Z,2.43
2024-01-24T00:47:29.865Z,1.77
2024-01-24T00:49:58.622Z,0.97
2024-01-24T00:52:27.201Z,2.10
2024-01-24T00:54:57.227Z,1.73
2024-01-24T00:57:25.960Z,1.03
2024-01-24T00:59:54.658Z,2.07
2024-01-24T01:02:23.356Z,1.57
2024-01-24T01:04:52.120Z,0.87
2024-01-24T01:07:20.835Z,1.13
2024-01-24T01:09:49.579Z,1.33
2024-01-24T01:12:20.179Z,1.27
2024-01-24T01:14:49.495Z,2.40
2024-01-24T01:17:18.088Z,2.87
2024-01-24T01:19:46.706Z,1.63
2024-01-24T01:22:15.618Z,1.60
2024-01-24T01:24:44.544Z,1.10
2024-01-24T01:27:13.414Z,0.80
2024-01-24T01:29:43.445Z,1.53
2024-01-24T01:32:12.090Z,1.00
2024-01-24T01:34:40.892Z,1.53
2024-01-24T01:37:09.660Z,1.30
2024-01-24T01:39:38.606Z,2.00
2024-01-24T01:42:07.373Z,1.70
2024-01-24T01:44:48.313Z,1.77
2024-01-24T01:47:18.426Z,3.20
2024-01-24T01:49:47.619Z,2.03
2024-01-24T01:52:17.803Z,2.40
2024-01-24T01:54:47.850Z,1.30
2024-01-24T01:57:16.847Z,1.43
2024-01-24T01:59:46.567Z,1.87
2024-01-24T02:02:17.639Z,1.80
2024-01-24T02:04:46.787Z,1.67
2024-01-24T02:09:45.699Z,2.70
2024-01-24T02:12:14.445Z,1.60
2024-01-24T02:14:43.314Z,1.67
2024-01-24T02:17:12.089Z,1.63
2024-01-24T02:19:43.276Z,1.27
2024-01-24T02:22:12.018Z,2.43
2024-01-24T02:24:41.986Z,2.00
2024-01-24T02:27:11.243Z,2.67
2024-01-24T02:29:39.964Z,3.17
2024-01-24T02:32:08.938Z,2.10
2024-01-24T02:34:37.694Z,2.53
2024-01-24T02:37:06.502Z,1.90
2024-01-24T02:39:35.190Z,4.13
2024-01-24T02:42:06.109Z,1.70
2024-01-24T02:44:34.862Z,2.27
2024-01-24T02:47:03.637Z,5.57
2024-01-24T02:49:32.885Z,2.10
2024-01-24T02:52:03.185Z,1.90
2024-01-24T02:54:32.153Z,2.00
2024-01-24T02:57:00.876Z,1.97
2024-01-24T02:59:31.186Z,2.63
2024-01-24T03:01:59.727Z,2.47
2024-01-24T03:04:28.494Z,2.53
2024-01-24T03:06:57.363Z,2.73
2024-01-24T03:09:26.124Z,4.40
2024-01-24T03:11:54.800Z,3.47
2024-01-24T03:14:23.448Z,4.27
2024-01-24T03:16:53.558Z,3.27
2024-01-24T03:19:22.304Z,3.87
2024-01-24T03:21:51.116Z,3.60
2024-01-24T03:24:19.882Z,3.57
2024-01-24T03:26:48.486Z,3.47
2024-01-24T03:29:17.336Z,3.97
2024-01-24T03:31:46.192Z,3.03
2024-01-24T03:34:16.274Z,5.53
2024-01-24T03:36:45.048Z,3.73
2024-01-24T03:39:13.872Z,3.90
2024-01-24T03:41:42.486Z,3.10
2024-01-24T03:44:11.288Z,2.20
2024-01-24T03:46:40.025Z,2.67
2024-01-24T03:49:08.859Z,2.73
2024-01-24T03:51:38.945Z,4.67
2024-01-24T03:54:07.762Z,1.80
2024-01-24T03:56:36.387Z,1.60
2024-01-24T03:59:05.154Z,7.47
2024-01-24T04:01:33.959Z,3.13
2024-01-24T04:04:02.766Z,2.87
2024-01-24T04:06:31.548Z,2.33
2024-01-24T04:09:01.755Z,2.90
2024-01-24T04:11:30.353Z,1.80
2024-01-24T04:13:59.031Z,2.70
2024-01-24T04:16:27.768Z,2.97
2024-01-24T04:18:56.599Z,3.33
2024-01-24T04:21:25.383Z,1.53
2024-01-24T04:23:54.051Z,1.33
2024-01-24T04:26:24.391Z,2.17
2024-01-24T04:28:53.353Z,1.30
2024-01-24T04:31:22.013Z,1.87
2024-01-24T04:33:50.735Z,3.57
2024-01-24T04:36:19.422Z,3.00
2024-01-24T04:38:48.137Z,6.47
2024-01-24T04:41:16.764Z,4.73
2024-01-24T04:43:46.777Z,4.90
2024-01-24T04:46:16.138Z,2.77
2024-01-24T04:48:46.290Z,2.47
2024-01-24T04:51:15.138Z,4.90
2024-01-24T04:53:43.751Z,3.50
2024-01-24T04:56:12.846Z,6.37
2024-01-24T04:58:42.890Z,10.50
2024-01-24T05:01:13.670Z,8.67
2024-01-24T05:03:42.538Z,6.60
2024-01-24T05:06:11.912Z,7.60
2024-01-24T05:08:41.362Z,7.47
2024-01-24T05:11:10.136Z,6.70
2024-01-24T05:13:38.981Z,10.90
2024-01-24T05:16:08.086Z,9.80
2024-01-24T05:18:38.228Z,9.47
2024-01-24T05:21:06.970Z,10.30
2024-01-24T05:23:35.675Z,10.53
2024-01-24T05:26:04.602Z,10.87
2024-01-24T05:28:33.249Z,8.37
2024-01-24T05:31:01.962Z,7.37
2024-01-24T05:33:30.827Z,9.87
2024-01-24T05:36:00.955Z,12.27
2024-01-24T05:38:30.968Z,16.30
2024-01-24T05:40:59.606Z,12.53
2024-01-24T05:43:28.332Z,8.50
2024-01-24T05:45:57.207Z,8.53
2024-01-24T05:48:25.929Z,7.60
2024-01-24T05:50:54.732Z,8.23
2024-01-24T05:53:25.345Z,11.40
2024-01-24T05:55:54.024Z,11.93
2024-01-24T05:58:22.728Z,9.13
2024-01-24T06:00:54.730Z,9.17
2024-01-24T06:03:23.542Z,8.13
2024-01-24T06:05:52.943Z,14.03
2024-01-24T06:08:21.733Z,11.43
2024-01-24T06:10:52.266Z,16.20
2024-01-24T06:13:20.897Z,9.07
2024-01-24T06:15:49.738Z,15.63
2024-01-24T06:18:18.686Z,8.73
2024-01-24T06:20:48.355Z,17.93
2024-01-24T06:23:17.301Z,13.43
2024-01-24T06:25:46.072Z,9.50
2024-01-24T06:28:16.157Z,6.93
2024-01-24T06:30:44.900Z,11.60
2024-01-24T06:33:16.013Z,12.13
2024-01-24T06:35:44.730Z,12.33
2024-01-24T06:38:14.147Z,11.47
2024-01-24T06:40:42.975Z,12.43
2024-01-24T06:43:13.660Z,16.30
2024-01-24T06:45:43.921Z,18.20
2024-01-24T06:48:12.590Z,16.27
2024-01-24T06:50:41.463Z,14.73
2024-01-24T06:53:11.925Z,16.47
2024-01-24T06:55:40.668Z,15.80
2024-01-24T06:58:10.099Z,15.53
2024-01-24T07:00:38.977Z,12.50
2024-01-24T07:03:09.151Z,19.00
2024-01-24T07:05:38.042Z,18.93
2024-01-24T07:08:07.549Z,17.07
2024-01-24T07:10:36.296Z,22.97
2024-01-24T07:13:06.201Z,23.73
2024-01-24T07:15:34.941Z,14.93
2024-01-24T07:18:04.713Z,21.57
2024-01-24T07:20:34.849Z,16.63
2024-01-24T07:23:03.830Z,21.73
2024-01-24T07:25:32.538Z,17.40
2024-01-24T07:28:01.159Z,16.80
2024-01-24T07:30:29.961Z,24.93
2024-01-24T07:32:58.690Z,16.87
2024-01-24T07:35:27.313Z,19.43
2024-01-24T07:37:57.476Z,22.43
2024-01-24T07:40:27.048Z,24.27
2024-01-24T07:42:56.472Z,19.60
2024-01-24T07:45:26.649Z,20.23
2024-01-24T07:47:55.448Z,18.30
2024-01-24T07:50:24.587Z,17.77
2024-01-24T07:52:53.430Z,16.20
2024-01-24T07:55:28.687Z,17.53
2024-01-24T07:58:06.265Z,26.30
2024-01-24T08:00:35.839Z,15.13
2024-01-24T08:03:05.633Z,16.40
2024-01-24T08:05:34.348Z,16.40
2024-01-24T08:08:05.305Z,15.40
2024-01-24T08:10:35.871Z,23.87
2024-01-24T08:13:04.773Z,15.17
2024-01-24T08:15:33.807Z,18.67
2024-01-24T08:18:02.832Z,22.03
2024-01-24T08:20:31.535Z,20.23
2024-01-24T08:23:00.385Z,18.30
2024-01-24T08:25:29.048Z,15.00
2024-01-24T08:27:59.296Z,18.17
2024-01-24T08:30:28.089Z,15.93
2024-01-24T08:32:56.986Z,24.83
2024-01-24T08:35:25.773Z,18.37
2024-01-24T08:37:54.526Z,17.33
2024-01-24T08:40:23.291Z,15.23
2024-01-24T08:42:52.244Z,13.73
2024-01-24T08:45:22.693Z,20.97
2024-01-24T08:47:52.485Z,19.90
2024-01-24T08:50:23.446Z,21.03
2024-01-24T08:52:52.878Z,20.33
2024-01-24T08:55:22.167Z,16.40
2024-01-24T08:57:51.291Z,21.83
2024-01-24T09:00:22.121Z,19.40
2024-01-24T09:02:51.123Z,21.60
2024-01-24T09:05:22.281Z,21.33
2024-01-24T09:07:51.098Z,20.83
2024-01-24T09:10:19.988Z,22.47
2024-01-24T09:12:49.611Z,20.83
2024-01-24T09:15:18.615Z,17.53
2024-01-24T09:17:49.340Z,22.37
2024-01-24T09:20:19.443Z,17.80
2024-01-24T09:22:48.560Z,18.07
2024-01-24T09:25:17.911Z,23.60
2024-01-24T09:27:47.283Z,18.77
2024-01-24T09:30:16.651Z,17.33
2024-01-24T09:32:45.576Z,17.80
2024-01-24T09:35:16.069Z,15.53
2024-01-24T09:37:45.282Z,17.43
2024-01-24T09:40:17.516Z,22.23
2024-01-24T09:42:47.221Z,30.33
2024-01-24T09:45:19.229Z,18.30
2024-01-24T09:47:49.868Z,20.57
2024-01-24T09:50:22.889Z,14.87
2024-01-24T09:52:55.500Z,24.80
2024-01-24T09:55:25.289Z,21.63
2024-01-24T09:57:54.173Z,21.20
2024-01-24T10:00:23.125Z,24.37
2024-01-24T10:02:52.608Z,25.07
2024-01-24T10:05:22.132Z,21.40
2024-01-24T10:07:52.057Z,22.23
2024-01-24T10:10:20.740Z,22.83
2024-01-24T10:12:49.741Z,18.43
2024-01-24T10:15:19.405Z,19.07
2024-01-24T10:17:48.553Z,23.93
2024-01-24T10:20:17.396Z,25.10
2024-01-24T10:22:47.823Z,19.40
2024-01-24T10:25:18.888Z,23.93
2024-01-24T10:27:47.833Z,28.03
2024-01-24T10:30:17.331Z,20.53
2024-01-24T10:32:48.492Z,24.17
2024-01-24T10:35:18.182Z,23.03
2024-01-24T10:37:49.000Z,20.77
2024-01-24T10:40:18.270Z,25.43
2024-01-24T10:42:49.563Z,26.00
2024-01-24T10:45:21.853Z,15.43
2024-01-24T10:47:52.817Z,21.60
2024-01-24T10:50:23.009Z,29.17
2024-01-24T10:52:55.074Z,27.37
2024-01-24T10:55:24.715Z,18.33
2024-01-24T10:57:55.698Z,23.93
2024-01-24T11:00:26.896Z,13.80
2024-01-24T11:02:55.875Z,16.53
2024-01-24T11:05:31.657Z,24.20
2024-01-24T11:08:06.215Z,21.33
2024-01-24T11:10:38.727Z,17.37
2024-01-24T11:13:08.283Z,15.13
2024-01-24T11:15:37.992Z,21.53
2024-01-24T11:18:28.206Z,23.57
2024-01-24T11:21:00.334Z,14.03
2024-01-24T11:23:39.991Z,22.73
2024-01-24T11:26:11.137Z,25.73
2024-01-24T11:28:40.648Z,16.40
2024-01-24T11:31:10.217Z,24.83
2024-01-24T11:33:47.615Z,25.93
2024-01-24T11:36:16.584Z,21.33
2024-01-24T11:38:47.163Z,26.57
2024-01-24T11:41:27.841Z,22.27
2024-01-24T11:43:58.679Z,27.07
2024-01-24T11:46:28.698Z,20.27
2024-01-24T11:49:08.118Z,23.07
2024-01-24T11:51:37.541Z,18.80
2024-01-24T11:54:07.813Z,19.77
2024-01-24T11:56:37.592Z,19.13
2024-01-24T11:59:06.292Z,17.00
2024-01-24T12:01:35.305Z,17.37
2024-01-24T12:04:05.455Z,17.43
2024-01-24T12:06:36.937Z,20.97
2024-01-24T12:09:09.426Z,15.37
2024-01-24T12:11:38.135Z,28.67
2024-01-24T12:14:06.946Z,21.40
2024-01-24T12:16:39.599Z,26.23
2024-01-24T12:19:10.377Z,17.37
2024-01-24T12:21:39.965Z,24.10
2024-01-24T12:24:10.790Z,21.73
2024-01-24T12:26:42.006Z,18.00
2024-01-24T12:29:11.313Z,20.90
2024-01-24T12:31:42.555Z,24.03
2024-01-24T12:34:11.638Z,20.90
2024-01-24T12:36:44.426Z,25.53
2024-01-24T12:39:14.606Z,22.47
2024-01-24T12:41:43.619Z,20.23
2024-01-24T12:44:12.524Z,15.83
2024-01-24T12:46:41.688Z,17.87
2024-01-24T12:49:10.671Z,16.30
2024-01-24T12:51:41.508Z,19.40
2024-01-24T12:54:10.399Z,16.77
2024-01-24T12:56:40.566Z,17.10
2024-01-24T12:59:09.715Z,12.90
2024-01-24T13:01:38.595Z,11.70
2024-01-24T13:04:07.590Z,13.97
2024-01-24T13:06:37.878Z,18.73
2024-01-24T13:09:07.313Z,21.67
2024-01-24T13:11:36.126Z,13.10
2024-01-24T13:14:06.227Z,13.60
2024-01-24T13:16:36.028Z,13.67
2024-01-24T13:19:05.214Z,18.17
2024-01-24T13:21:34.046Z,15.53
2024-01-24T13:24:04.682Z,22.50
2024-01-24T13:26:33.518Z,17.40
2024-01-24T13:29:02.628Z,19.10
2024-01-24T13:31:34.095Z,16.13
2024-01-24T13:34:03.245Z,21.40
2024-01-24T13:36:33.006Z,18.17
2024-01-24T13:39:01.973Z,15.60
2024-01-24T13:41:30.783Z,17.30
2024-01-24T13:43:59.685Z,17.27
2024-01-24T13:46:28.421Z,20.57
2024-01-24T13:48:59.735Z,18.97
2024-01-24T13:51:38.676Z,18.57
2024-01-24T13:54:12.012Z,18.93
2024-01-24T13:56:40.708Z,22.70
2024-01-24T13:59:10.623Z,16.03
2024-01-24T14:01:45.236Z,24.37
2024-01-24T14:04:16.648Z,16.47
2024-01-24T14:06:46.392Z,21.97
2024-01-24T14:09:15.819Z,23.63
2024-01-24T14:11:45.370Z,16.20
2024-01-24T14:14:14.127Z,24.90
2024-01-24T14:16:42.742Z,20.60
2024-01-24T14:19:12.283Z,22.93
2024-01-24T14:21:42.693Z,25.50
2024-01-24T14:24:11.491Z,24.83
2024-01-24T14:26:40.284Z,24.57
2024-01-24T14:29:09.435Z,24.03
2024-01-24T14:31:39.203Z,23.23
2024-01-24T14:34:08.183Z,31.23
2024-01-24T14:36:37.827Z,28.87
2024-01-24T14:39:09.027Z,29.93
2024-01-24T14:41:38.246Z,29.23
2024-01-24T14:44:07.044Z,37.80
2024-01-24T14:46:35.769Z,34.43
2024-01-24T14:49:04.730Z,23.83
2024-01-24T14:51:33.445Z,27.97
2024-01-24T14:54:02.255Z,23.10
2024-01-24T14:56:32.483Z,24.63
2024-01-24T14:59:02.410Z,28.73
2024-01-24T15:01:31.289Z,30.60
2024-01-24T15:04:00.221Z,27.23
2024-01-24T15:06:29.198Z,33.80
2024-01-24T15:08:57.961Z,24.00
2024-01-24T15:11:26.694Z,39.93
2024-01-24T15:13:56.674Z,28.73
2024-01-24T15:16:25.921Z,28.37
2024-01-24T15:18:55.554Z,25.43
2024-01-24T15:21:24.310Z,30.83
2024-01-24T15:23:53.751Z,21.40
2024-01-24T15:26:22.473Z,33.60
2024-01-24T15:28:51.296Z,31.77
2024-01-24T15:31:21.422Z,29.90
2024-01-24T15:33:51.152Z,24.23
2024-01-24T15:36:21.019Z,24.27
2024-01-24T15:38:52.095Z,25.27
2024-01-24T15:41:20.986Z,28.93
2024-01-24T15:43:49.756Z,28.33
2024-01-24T15:46:21.862Z,31.00
2024-01-24T15:48:52.071Z,27.03
2024-01-24T15:51:20.945Z,26.57
2024-01-24T15:53:50.101Z,29.10
2024-01-24T15:56:19.861Z,28.13
2024-01-24T15:58:48.579Z,33.37
2024-01-24T16:01:17.450Z,33.10
2024-01-24T16:03:47.830Z,36.83
2024-01-24T16:06:16.582Z,30.13
2024-01-24T16:08:46.323Z,25.73
2024-01-24T16:11:15.115Z,28.13
2024-01-24T16:13:44.466Z,24.47
2024-01-24T16:16:17.312Z,29.90
2024-01-24T16:18:49.450Z,25.80
2024-01-24T16:21:19.528Z,32.83
2024-01-24T16:23:48.391Z,24.70
2024-01-24T16:26:17.183Z,22.57
2024-01-24T16:28:45.917Z,27.80
2024-01-24T16:31:14.750Z,30.57
2024-01-24T16:33:43.622Z,25.33
2024-01-24T16:36:28.437Z,29.30
2024-01-24T16:39:01.985Z,22.80
2024-01-24T16:41:31.880Z,29.20
2024-01-24T16:44:01.811Z,28.63
2024-01-24T16:46:30.913Z,24.13
2024-01-24T16:48:59.759Z,24.83
2024-01-24T16:51:29.890Z,34.93
2024-01-24T16:53:58.775Z,26.80
2024-01-24T16:56:27.412Z,31.53
2024-01-24T16:58:56.080Z,23.00
2024-01-24T17:01:25.045Z,29.13
2024-01-24T17:03:53.865Z,22.07
2024-01-24T17:06:22.672Z,24.90
2024-01-24T17:08:52.700Z,25.73
2024-01-24T17:11:21.390Z,27.53
2024-01-24T17:13:50.102Z,20.10
2024-01-24T17:16:18.715Z,26.90
2024-01-24T17:18:47.566Z,21.70
2024-01-24T17:21:16.495Z,23.10
2024-01-24T17:23:46.598Z,26.47
2024-01-24T17:26:17.278Z,23.13
2024-01-24T17:28:46.588Z,21.00
2024-01-24T17:31:15.676Z,27.17
2024-01-24T17:33:44.646Z,21.13
2024-01-24T17:36:13.331Z,20.20
2024-01-24T17:38:42.053Z,20.73
2024-01-24T17:41:10.803Z,15.20
2024-01-24T17:43:40.804Z,17.60
2024-01-24T17:46:09.626Z,18.47
2024-01-24T17:48:40.389Z,18.03
2024-01-24T17:51:09.516Z,24.10
2024-01-24T17:53:38.205Z,23.37
2024-01-24T17:56:07.911Z,17.03
2024-01-24T17:58:37.125Z,20.43
2024-01-24T18:01:07.789Z,23.87
2024-01-24T18:03:36.840Z,23.10
2024-01-24T18:06:06.540Z,26.57
2024-01-24T18:08:35.224Z,29.13
2024-01-24T18:11:03.965Z,27.23
2024-01-24T18:13:32.653Z,38.50
2024-01-24T18:16:01.566Z,25.20
2024-01-24T18:18:31.959Z,24.43
2024-01-24T18:21:00.892Z,27.30
2024-01-24T18:23:30.030Z,23.87
2024-01-24T18:25:58.706Z,20.10
2024-01-24T18:28:28.797Z,33.37
2024-01-24T18:30:58.331Z,26.17
2024-01-24T18:33:27.319Z,28.03
2024-01-24T18:35:57.798Z,28.93
2024-01-24T18:38:26.541Z,36.43
2024-01-24T18:40:55.193Z,28.20
2024-01-24T18:43:23.906Z,26.93
2024-01-24T18:45:52.928Z,24.10
2024-01-24T18:48:22.109Z,26.50
2024-01-24T18:50:50.850Z,24.87
2024-01-24T18:53:21.241Z,23.60
2024-01-24T18:55:49.926Z,17.17
2024-01-24T18:58:19.126Z,18.23
2024-01-24T19:00:49.172Z,28.67
2024-01-24T19:03:26.301Z,20.27
2024-01-24T19:05:55.428Z,26.27
2024-01-24T19:08:25.606Z,23.40
2024-01-24T19:10:54.724Z,23.17
2024-01-24T19:13:25.205Z,22.47
2024-01-24T19:15:57.574Z,22.63
2024-01-24T19:18:27.870Z,21.63
2024-01-24T19:20:56.815Z,25.10
2024-01-24T19:23:27.807Z,27.43
2024-01-24T19:25:57.107Z,19.23
2024-01-24T19:28:26.052Z,17.80
2024-01-24T19:30:54.920Z,20.33
2024-01-24T19:33:23.591Z,22.20
2024-01-24T19:35:52.296Z,17.67
2024-01-24T19:38:21.141Z,22.13
2024-01-24T19:40:51.548Z,23.73
2024-01-24T19:43:21.780Z,16.40
2024-01-24T19:45:52.307Z,20.50
2024-01-24T19:48:21.831Z,16.37
2024-01-24T19:50:50.873Z,21.57
2024-01-24T19:53:23.784Z,18.47
2024-01-24T19:56:00.345Z,16.20
2024-01-24T19:58:29.069Z,15.87
2024-01-24T20:00:59.561Z,17.63
2024-01-24T20:03:28.375Z,25.33
2024-01-24T20:05:57.055Z,20.67
2024-01-24T20:08:25.741Z,20.17
2024-01-24T20:10:54.402Z,20.83
2024-01-24T20:13:24.528Z,20.93
2024-01-24T20:15:56.440Z,22.10
2024-01-24T20:18:27.454Z,23.17
2024-01-24T20:20:56.443Z,27.67
2024-01-24T20:23:27.259Z,26.90
2024-01-24T20:25:57.168Z,16.57
2024-01-24T20:28:27.146Z,21.70
2024-01-24T20:30:55.830Z,24.53
2024-01-24T20:33:24.831Z,18.93
2024-01-24T20:35:54.440Z,17.17
2024-01-24T20:38:24.410Z,23.77
2024-01-24T20:40:53.002Z,25.13
2024-01-24T20:43:21.701Z,19.70
2024-01-24T20:45:51.886Z,19.53
2024-01-24T20:48:20.626Z,16.30
2024-01-24T20:50:49.345Z,14.10
2024-01-24T20:53:19.308Z,32.03
2024-01-24T20:55:48.071Z,21.30
2024-01-24T20:58:15.755Z,20.67
2024-01-24T21:00:44.693Z,24.47
2024-01-24T21:03:15.252Z,20.50
2024-01-24T21:05:44.786Z,24.03
2024-01-24T21:08:14.048Z,21.17
2024-01-24T21:10:49.092Z,15.20
2024-01-24T21:13:24.932Z,27.77
2024-01-24T21:15:53.675Z,22.03
2024-01-24T21:18:24.145Z,18.97
2024-01-24T21:20:53.170Z,13.90
2024-01-24T21:23:22.055Z,17.80
2024-01-24T21:25:50.837Z,15.97
2024-01-24T21:28:19.484Z,18.57
2024-01-24T21:30:48.191Z,17.20
2024-01-24T21:33:17.073Z,18.83
2024-01-24T21:35:47.480Z,19.27
2024-01-24T21:38:16.327Z,18.80
2024-01-24T21:40:45.029Z,25.33
2024-01-24T21:43:13.857Z,23.53
2024-01-24T21:45:42.789Z,20.30
2024-01-24T21:48:11.504Z,19.17
2024-01-24T21:50:40.649Z,22.97
2024-01-24T21:53:11.261Z,18.53
2024-01-24T21:55:40.285Z,14.73
2024-01-24T21:58:09.428Z,19.07
2024-01-24T22:00:38.671Z,22.80
2024-01-24T22:03:08.063Z,21.97
2024-01-24T22:05:36.757Z,14.37
2024-01-24T22:08:07.881Z,15.07
2024-01-24T22:10:38.058Z,13.07
2024-01-24T22:13:06.827Z,23.47
2024-01-24T22:15:35.573Z,14.90
2024-01-24T22:18:04.788Z,21.43
2024-01-24T22:20:33.525Z,16.07
2024-01-24T22:23:02.212Z,20.13
2024-01-24T22:25:30.948Z,20.70
2024-01-24T22:28:01.070Z,17.83
2024-01-24T22:30:29.919Z,17.90
2024-01-24T22:32:59.402Z,21.77
2024-01-24T22:35:28.259Z,17.80
2024-01-24T22:37:58.361Z,22.20
2024-01-24T22:40:27.302Z,19.10
2024-01-24T22:42:56.005Z,22.80
2024-01-24T22:45:26.325Z,15.63
2024-01-24T22:47:56.146Z,21.47
2024-01-24T22:50:25.234Z,18.83
2024-01-24T22:52:54.014Z,21.57
2024-01-24T22:55:22.756Z,20.57
2024-01-24T22:57:51.897Z,18.67
2024-01-24T23:00:25.018Z,17.90
2024-01-24T23:02:53.720Z,18.83
2024-01-24T23:05:22.403Z,18.67
2024-01-24T23:07:51.092Z,21.67
2024-01-24T23:10:20.061Z,13.80
2024-01-24T23:12:48.923Z,28.87
2024-01-24T23:15:17.690Z,20.70
2024-01-24T23:17:48.079Z,23.13
2024-01-24T23:20:17.070Z,21.17
2024-01-24T23:22:45.915Z,30.97
2024-01-24T23:25:14.890Z,15.77
2024-01-24T23:27:43.793Z,15.90
2024-01-24T23:30:13.286Z,18.57
2024-01-24T23:32:42.770Z,24.13
2024-01-24T23:35:13.111Z,22.43
2024-01-24T23:37:42.093Z,15.40
2024-01-24T23:40:12.313Z,15.20
2024-01-24T23:42:41.171Z,20.27
2024-01-24T23:45:10.809Z,19.40
2024-01-24T23:47:39.631Z,19.37
2024-01-24T23:50:09.820Z,19.27
2024-01-24T23:52:40.057Z,16.63
2024-01-24T23:55:09.899Z,18.60
2024-01-24T23:57:38.695Z,22.53
